Time;durP1;ratioP1;P1;durP2;ratioP2;P2;SDS_P1;SDS_P2;PMS_P1;PMS_P2;Temp;Humidity;BMP_temperature;BMP_pressure;BME280_temperature;BME280_humidity;BME280_pressure;Samples;Min_cycle;Max_cycle;Signal;HPM_P1;HPM_P2
2022/11/08 00:01:30;;;;;;;5.80;2.30;;;;;;;11.85;89.21;100872.38;5037724;28;20121;-76
2022/11/08 00:03:55;;;;;;;9.07;2.20;;;;;;;11.88;89.61;100878.16;5047809;28;20098;-75
2022/11/08 00:14:33;;;;;;;7.65;2.28;;;;;;;11.76;89.42;100894.75;5030012;28;20086;-76
2022/11/08 00:16:59;;;;;;;6.07;1.90;;;;;;;11.73;90.22;100889.81;5041715;28;20141;-76
2022/11/08 00:19:24;;;;;;;9.43;2.40;;;;;;;11.71;89.77;100894.31;5043043;28;20442;-76
2022/11/08 00:21:49;;;;;;;7.78;2.25;;;;;;;11.70;89.86;100885.72;5052225;28;20061;-77
2022/11/08 00:24:15;;;;;;;5.38;2.58;;;;;;;11.69;89.62;100883.22;5047588;28;20052;-75
2022/11/08 00:26:40;;;;;;;8.20;2.92;;;;;;;11.66;89.85;100894.72;5042414;28;20032;-75
2022/11/08 00:29:06;;;;;;;9.23;2.38;;;;;;;11.58;90.66;100880.72;5049958;28;20074;-75
2022/11/08 00:31:31;;;;;;;8.40;2.20;;;;;;;11.56;90.57;100883.44;5047372;28;20095;-76
2022/11/08 00:33:56;;;;;;;9.55;2.55;;;;;;;11.56;90.59;100893.03;5036120;28;20457;-75
2022/11/08 00:36:22;;;;;;;8.68;2.42;;;;;;;11.52;90.23;100892.44;5040075;28;20480;-75
2022/11/08 00:38:47;;;;;;;7.32;2.25;;;;;;;11.54;90.77;100887.16;5044365;28;20025;-76
2022/11/08 00:41:13;;;;;;;14.38;2.58;;;;;;;11.48;90.55;100885.88;5039196;28;20024;-77
2022/11/08 00:43:38;;;;;;;8.85;2.20;;;;;;;11.46;90.80;100874.78;5043159;28;20057;-76
2022/11/08 00:46:03;;;;;;;8.00;2.20;;;;;;;11.45;90.79;100886.13;5044457;28;20037;-76
2022/11/08 00:48:29;;;;;;;7.43;2.13;;;;;;;11.43;90.36;100882.84;5044093;28;20890;-75
2022/11/08 00:50:54;;;;;;;9.20;2.28;;;;;;;11.40;91.25;100867.50;5043933;28;20035;-77
2022/11/08 00:53:20;;;;;;;7.65;2.22;;;;;;;11.34;91.37;100868.84;5042977;28;20032;-75
2022/11/08 00:55:45;;;;;;;6.85;2.65;;;;;;;11.30;91.26;100866.66;5041448;28;20064;-76
2022/11/08 00:58:11;;;;;;;9.57;2.83;;;;;;;11.32;90.56;100875.13;5049505;28;20029;-77
2022/11/08 01:00:36;;;;;;;6.05;2.22;;;;;;;11.30;90.82;100871.84;5039474;28;20285;-75
2022/11/08 01:03:17;;;;;;;7.85;2.38;;;;;;;11.27;91.00;100866.91;5041849;28;20021;-75
2022/11/08 01:05:43;;;;;;;7.75;2.13;;;;;;;11.21;91.45;100873.44;5036034;28;20029;-75
2022/11/08 01:08:09;;;;;;;7.90;2.22;;;;;;;11.18;91.34;100878.88;5050843;28;20044;-76
2022/11/08 01:10:35;;;;;;;10.18;2.33;;;;;;;11.17;92.25;100872.84;5035739;28;20481;-75
2022/11/08 01:13:01;;;;;;;7.88;1.95;;;;;;;11.15;91.55;100874.75;5031500;28;20048;-77
2022/11/08 01:15:26;;;;;;;7.82;2.50;;;;;;;11.12;92.44;100869.00;5050209;28;20035;-75
2022/11/08 01:17:52;;;;;;;7.88;2.10;;;;;;;11.09;92.02;100877.88;5038901;28;20037;-77
2022/11/08 01:20:17;;;;;;;7.68;2.20;;;;;;;11.08;92.03;100868.44;5043160;28;20280;-77
2022/11/08 01:22:42;;;;;;;10.68;2.10;;;;;;;10.97;92.05;100852.94;5041132;28;20072;-79
2022/11/08 01:25:08;;;;;;;5.38;1.90;;;;;;;10.98;92.09;100857.19;5038298;28;20446;-77
2022/11/08 01:27:33;;;;;;;5.97;2.40;;;;;;;10.96;93.06;100864.28;5035077;28;20041;-76
2022/11/08 01:29:59;;;;;;;6.15;2.08;;;;;;;10.95;92.45;100857.41;5036941;28;20473;-75
2022/11/08 01:32:24;;;;;;;6.68;1.77;;;;;;;10.92;92.33;100857.69;5048051;28;20051;-76
2022/11/08 01:34:49;;;;;;;10.57;2.55;;;;;;;10.88;92.70;100848.50;5064294;28;20131;-77
2022/11/08 01:37:17;;;;;;;12.75;2.20;;;;;;;10.89;91.98;100852.72;5044532;28;20071;-77
2022/11/08 01:39:43;;;;;;;6.60;1.88;;;;;;;10.81;92.57;100835.22;5079082;28;20455;-75
2022/11/08 01:42:08;;;;;;;6.53;2.15;;;;;;;10.86;93.06;100840.03;5045515;28;20266;-76
2022/11/08 01:44:53;;;;;;;6.95;1.80;;;;;;;10.82;92.43;100836.03;5046852;28;20543;-76
2022/11/08 01:47:18;;;;;;;7.53;2.30;;;;;;;10.82;92.46;100836.03;5037962;28;20025;-76
2022/11/08 01:49:45;;;;;;;4.50;1.90;;;;;;;10.79;93.24;100831.94;5048659;28;20108;-75
2022/11/08 01:52:32;;;;;;;6.85;2.13;;;;;;;10.75;93.49;100816.75;5037560;28;20029;-76
2022/11/08 01:55:17;;;;;;;6.60;2.00;;;;;;;10.74;93.22;100807.31;5037177;28;20017;-77
2022/11/08 01:57:59;;;;;;;8.63;2.20;;;;;;;10.78;93.86;100824.25;5043857;28;20049;-75
2022/11/08 02:00:24;;;;;;;6.60;2.05;;;;;;;10.71;93.72;100804.97;5045527;28;20186;-77
2022/11/08 02:02:58;;;;;;;8.52;2.47;;;;;;;10.68;93.14;100798.28;5045975;28;20032;-76
2022/11/08 02:05:25;;;;;;;6.03;2.17;;;;;;;10.73;93.46;100800.50;5038815;28;20033;-75
2022/11/08 02:07:51;;;;;;;7.85;2.47;;;;;;;10.70;94.11;100800.72;5039898;28;20033;-76
2022/11/08 02:10:18;;;;;;;7.20;2.45;;;;;;;10.63;93.32;100790.03;5050620;28;20062;-75
2022/11/08 02:12:43;;;;;;;8.77;2.70;;;;;;;10.65;93.67;100782.94;5047044;28;20134;-75
2022/11/08 02:15:10;;;;;;;7.18;2.08;;;;;;;10.62;94.19;100778.84;5047727;28;20055;-75
2022/11/08 02:17:36;;;;;;;8.05;2.25;;;;;;;10.67;94.02;100780.22;5037174;28;20029;-75
2022/11/08 02:20:02;;;;;;;4.57;2.03;;;;;;;10.59;94.20;100763.53;5045854;28;20036;-76
2022/11/08 02:22:44;;;;;;;7.32;2.15;;;;;;;10.65;94.54;100767.38;5044213;28;20072;-77
2022/11/08 02:25:09;;;;;;;8.48;2.42;;;;;;;10.57;94.61;100770.63;5041915;28;20028;-75
2022/11/08 02:27:34;;;;;;;7.03;2.30;;;;;;;10.60;93.65;100770.34;5042343;28;20381;-77
2022/11/08 02:30:00;;;;;;;8.07;3.63;;;;;;;10.53;94.32;100758.03;5045971;28;20044;-75
2022/11/08 02:32:25;;;;;;;8.05;2.30;;;;;;;10.59;94.62;100768.72;5046409;28;20059;-76
2022/11/08 02:34:57;;;;;;;5.63;1.98;;;;;;;10.56;93.68;100756.00;5061808;28;20039;-77
2022/11/08 02:37:25;;;;;;;7.22;2.15;;;;;;;10.48;94.42;100755.81;5044954;28;20465;-75
2022/11/08 02:39:50;;;;;;;9.93;2.35;;;;;;;10.52;94.34;100757.19;5045553;28;20492;-76
2022/11/08 02:42:18;;;;;;;7.97;2.45;;;;;;;10.50;94.34;100753.94;5046118;28;20021;-75
2022/11/08 02:44:45;;;;;;;8.10;2.50;;;;;;;10.53;94.81;100758.84;5046405;28;20069;-75
2022/11/08 02:47:10;;;;;;;8.75;2.30;;;;;;;10.42;94.70;100740.75;5050302;28;20044;-76
2022/11/08 02:49:36;;;;;;;6.53;2.63;;;;;;;10.52;94.98;100751.19;5054796;28;20029;-77
2022/11/08 02:52:01;;;;;;;7.13;1.85;;;;;;;10.51;94.99;100760.75;5041129;28;20061;-76
2022/11/08 02:54:27;;;;;;;8.90;2.40;;;;;;;10.49;94.60;100752.25;5043621;28;20059;-75
2022/11/08 02:56:52;;;;;;;6.22;2.47;;;;;;;10.47;95.40;100741.19;5042377;28;20412;-75
2022/11/08 02:59:17;;;;;;;7.43;2.20;;;;;;;10.47;94.82;100736.00;5050737;28;20061;-77
2022/11/08 03:01:43;;;;;;;6.28;1.98;;;;;;;10.47;95.03;100737.78;5047346;28;20737;-77
2022/11/08 03:04:09;;;;;;;6.78;2.60;;;;;;;10.47;94.80;100733.41;5051162;28;20111;-76
2022/11/08 03:06:35;;;;;;;8.07;2.10;;;;;;;10.45;94.90;100730.16;5047582;28;20496;-77
2022/11/08 03:09:00;;;;;;;7.63;2.40;;;;;;;10.41;94.41;100720.97;5040705;28;21079;-76
2022/11/08 03:11:27;;;;;;;6.50;2.08;;;;;;;10.44;94.45;100733.69;5054204;28;20028;-76
2022/11/08 03:13:52;;;;;;;9.90;2.30;;;;;;;10.43;95.03;100726.00;5048982;28;20048;-75
2022/11/08 03:16:17;;;;;;;4.25;1.98;;;;;;;10.35;94.52;100708.50;5045179;28;20108;-75
2022/11/08 03:18:43;;;;;;;8.35;2.95;;;;;;;10.40;94.95;100716.72;5043304;28;20051;-77
2022/11/08 03:21:08;;;;;;;7.82;2.33;;;;;;;10.40;94.79;100714.13;5045670;28;20408;-76
2022/11/08 03:23:34;;;;;;;4.47;1.83;;;;;;;10.39;94.86;100715.09;5047541;28;20032;-76
2022/11/08 03:26:01;;;;;;;7.55;2.35;;;;;;;10.30;94.58;100695.09;5042041;28;20083;-75
2022/11/08 03:28:27;;;;;;;5.70;1.77;;;;;;;10.32;94.87;100698.38;5043254;28;20028;-75
2022/11/08 03:30:52;;;;;;;6.13;2.30;;;;;;;10.37;94.78;100696.22;5046631;28;20028;-75
2022/11/08 03:33:18;;;;;;;7.05;2.13;;;;;;;10.37;94.78;100697.06;5037193;28;20381;-75
2022/11/08 03:35:43;;;;;;;6.45;2.10;;;;;;;10.33;94.77;100692.28;5044830;28;20059;-75
2022/11/08 03:38:09;;;;;;;6.65;2.03;;;;;;;10.27;94.43;100672.03;5048162;28;20037;-75
2022/11/08 03:40:34;;;;;;;9.43;2.35;;;;;;;10.30;94.75;100679.53;5044548;28;20040;-75
2022/11/08 03:42:59;;;;;;;7.45;2.45;;;;;;;10.31;94.18;100676.00;5044412;28;20400;-76
2022/11/08 03:45:25;;;;;;;7.45;1.98;;;;;;;10.29;94.29;100664.94;5044352;28;20047;-77
2022/11/08 03:47:50;;;;;;;6.50;1.95;;;;;;;10.33;94.54;100671.53;5034770;28;20885;-76
2022/11/08 03:50:16;;;;;;;4.82;2.05;;;;;;;10.31;94.46;100657.84;5049829;28;20469;-76
2022/11/08 03:52:50;;;;;;;5.65;2.20;;;;;;;10.29;94.06;100646.81;5047372;28;20039;-75
2022/11/08 03:55:17;;;;;;;5.85;1.85;;;;;;;10.28;94.64;100648.56;5041713;28;20107;-75
2022/11/08 03:57:45;;;;;;;6.32;2.08;;;;;;;10.26;94.77;100639.28;5043258;28;20469;-75
2022/11/08 04:00:12;;;;;;;4.28;1.95;;;;;;;10.28;94.19;100634.78;5043034;28;20040;-76
2022/11/08 04:02:38;;;;;;;5.75;1.83;;;;;;;10.24;94.61;100633.41;5034520;28;20033;-75
2022/11/08 04:05:04;;;;;;;8.65;2.33;;;;;;;10.27;94.29;100625.38;5043762;28;20032;-75
2022/11/08 04:07:30;;;;;;;4.28;1.80;;;;;;;10.25;94.65;100635.03;5045098;28;20063;-75
2022/11/08 04:09:55;;;;;;;5.88;2.20;;;;;;;10.23;93.70;100621.38;5046732;28;20060;-75
2022/11/08 04:15:14;;;;;;;5.95;1.88;;;;;;;10.26;93.99;100610.75;5042787;28;20036;-75
2022/11/08 04:23:23;;;;;;;;;;;;;;;10.26;93.99;100595.19;5048990;28;20091;-75
2022/11/08 04:25:57;;;;;;;6.50;2.00;;;;;;;10.23;93.16;100605.81;5043426;28;19921;-75
2022/11/08 04:28:27;;;;;;;5.53;1.88;;;;;;;10.18;93.66;100597.59;5043435;28;20047;-77
2022/11/08 04:30:55;;;;;;;6.00;2.03;;;;;;;10.21;93.10;100597.34;5056614;28;20495;-75
2022/11/08 04:33:23;;;;;;;5.95;1.73;;;;;;;10.17;92.70;100594.19;5047355;28;20029;-75
2022/11/08 04:35:49;;;;;;;;;;;;;;;10.22;93.35;100599.81;5043155;28;20039;-76
2022/11/08 04:38:15;;;;;;;5.78;1.73;;;;;;;10.16;92.92;100589.13;5044094;28;19916;-78
2022/11/08 04:40:41;;;;;;;6.47;2.47;;;;;;;10.17;92.66;100590.78;5058447;28;20033;-75
2022/11/08 04:43:06;;;;;;;8.25;2.22;;;;;;;10.15;92.12;100597.84;5045031;28;20070;-76
2022/11/08 04:45:31;;;;;;;5.25;1.85;;;;;;;10.14;92.84;100585.84;5041505;28;20473;-75
2022/11/08 04:47:57;;;;;;;6.70;1.95;;;;;;;10.13;92.33;100584.19;5040826;28;20033;-77
2022/11/08 04:50:22;;;;;;;5.05;1.65;;;;;;;10.10;91.93;100565.38;5044882;28;20365;-76
2022/11/08 04:52:52;;;;;;;6.32;1.95;;;;;;;10.08;92.43;100582.81;5040577;28;20025;-75
2022/11/08 04:55:19;;;;;;;5.47;1.70;;;;;;;10.06;92.02;100578.72;5044176;28;20025;-76
2022/11/08 04:57:44;;;;;;;7.20;1.90;;;;;;;10.04;92.54;100578.03;5051710;28;20038;-76
2022/11/08 05:00:10;;;;;;;5.78;2.00;;;;;;;10.03;92.36;100568.59;5047920;28;20033;-77
2022/11/08 05:02:36;;;;;;;7.70;2.42;;;;;;;10.03;91.72;100564.22;5050558;28;20435;-76
2022/11/08 05:05:01;;;;;;;5.55;1.70;;;;;;;10.02;91.46;100554.81;5050754;28;20027;-76
2022/11/08 05:07:28;;;;;;;7.47;2.00;;;;;;;10.00;90.98;100554.13;5039584;28;20487;-76
2022/11/08 05:09:54;;;;;;;4.43;2.05;;;;;;;9.99;91.45;100557.69;5057263;28;20021;-76
2022/11/08 05:12:20;;;;;;;4.40;1.83;;;;;;;9.95;91.34;100551.09;5063822;28;20423;-77
2022/11/08 05:14:45;;;;;;;5.55;2.15;;;;;;;9.95;91.12;100545.09;5044885;28;20029;-75
2022/11/08 05:17:10;;;;;;;5.38;2.10;;;;;;;9.93;91.25;100547.81;5037214;28;20467;-75
2022/11/08 05:25:04;;;;;;;5.72;2.50;;;;;;;9.85;90.76;100534.69;5035509;28;20117;-75
2022/11/08 05:27:29;;;;;;;8.15;2.50;;;;;;;9.81;90.40;100533.31;5031619;28;20029;-75
2022/11/08 05:29:55;;;;;;;4.78;2.30;;;;;;;9.78;90.93;100525.78;5049166;28;20483;-76
2022/11/08 05:32:20;;;;;;;5.70;2.35;;;;;;;9.75;90.86;100529.47;5042027;28;20066;-75
2022/11/08 05:34:45;;;;;;;5.70;2.55;;;;;;;9.74;91.56;100532.16;5036486;28;20091;-75
2022/11/08 05:37:11;;;;;;;6.20;2.47;;;;;;;9.66;91.49;100517.25;5038168;28;20065;-75
2022/11/08 05:39:36;;;;;;;11.15;2.75;;;;;;;9.69;91.10;100519.59;5042543;28;20072;-75
2022/11/08 05:42:03;;;;;;;6.43;2.63;;;;;;;9.66;91.18;100519.03;5041380;28;20496;-75
2022/11/08 05:44:29;;;;;;;6.18;2.50;;;;;;;9.62;90.90;100518.44;5050811;28;20044;-75
2022/11/08 05:46:54;;;;;;;7.30;2.63;;;;;;;9.53;90.82;100509.69;5052601;28;20342;-75
2022/11/08 05:49:20;;;;;;;7.60;2.45;;;;;;;9.58;91.03;100510.13;5040336;28;20191;-75
2022/11/08 05:51:45;;;;;;;6.05;2.10;;;;;;;9.55;90.90;100502.59;5041441;28;20112;-75
2022/11/08 05:54:11;;;;;;;4.65;1.95;;;;;;;9.55;90.58;100502.59;5044794;28;20055;-75
2022/11/08 05:56:38;;;;;;;4.57;1.98;;;;;;;9.56;91.08;100493.06;5080998;28;20018;-75
2022/11/08 05:59:04;;;;;;;5.65;2.10;;;;;;;9.54;90.76;100495.78;5048235;28;20457;-75
2022/11/08 06:01:29;;;;;;;4.95;2.20;;;;;;;9.54;90.65;100500.97;5075131;28;20037;-75
2022/11/08 06:03:54;;;;;;;3.88;1.63;;;;;;;9.50;90.56;100484.03;5051474;28;20036;-77
2022/11/08 06:06:21;;;;;;;4.88;1.95;;;;;;;9.53;90.38;100491.56;5046437;28;20029;-76
2022/11/08 06:08:47;;;;;;;3.85;1.80;;;;;;;9.54;89.95;100495.78;5048448;28;20118;-76
2022/11/08 06:11:15;;;;;;;5.25;1.73;;;;;;;9.54;90.33;100498.38;5055659;28;20524;-75
2022/11/08 06:13:41;;;;;;;4.82;1.80;;;;;;;9.54;90.16;100506.16;5044964;28;20033;-76
2022/11/08 06:16:10;;;;;;;7.28;2.03;;;;;;;9.55;90.15;100502.59;5054298;28;20488;-77
2022/11/08 06:18:36;;;;;;;;;;;;;;;9.60;90.59;100510.00;5037294;28;20025;-77
2022/11/08 06:21:03;;;;;;;7.18;2.05;;;;;;;9.57;89.91;100511.06;5037546;28;20373;-76
2022/11/08 06:23:29;;;;;;;4.03;1.90;;;;;;;9.57;89.76;100505.88;5035257;28;20116;-76
2022/11/08 06:25:54;;;;;;;4.00;1.80;;;;;;;9.60;89.41;100504.00;5048240;28;20100;-76
2022/11/08 06:28:20;;;;;;;4.30;2.38;;;;;;;9.60;89.62;100493.63;5040437;28;20071;-76
2022/11/08 06:30:46;;;;;;;3.33;1.92;;;;;;;9.62;89.64;100489.16;5040177;28;20025;-75
2022/11/08 06:33:11;;;;;;;7.32;2.40;;;;;;;9.63;89.88;100489.00;5045909;28;20027;-75
2022/11/08 06:35:37;;;;;;;5.25;2.40;;;;;;;9.64;89.31;100495.03;5038264;28;20028;-75
2022/11/08 06:38:03;;;;;;;5.22;2.30;;;;;;;9.66;89.49;100499.13;5040890;28;20087;-75
2022/11/08 06:40:29;;;;;;;5.75;2.33;;;;;;;9.65;88.78;100494.09;5051936;28;20115;-76
2022/11/08 06:42:55;;;;;;;3.95;2.13;;;;;;;9.60;89.10;100488.47;5051524;28;20056;-76
2022/11/08 06:45:20;;;;;;;6.18;2.55;;;;;;;9.66;88.75;100498.31;5044276;28;20537;-75
2022/11/08 06:47:46;;;;;;;5.05;2.47;;;;;;;9.66;89.02;100487.94;5035505;28;20496;-75
2022/11/08 06:50:11;;;;;;;6.03;2.35;;;;;;;9.65;88.51;100481.13;5046065;28;20103;-75
2022/11/08 06:52:36;;;;;;;5.65;2.45;;;;;;;9.65;89.03;100473.38;5044910;28;20099;-75
2022/11/08 06:55:02;;;;;;;5.65;2.10;;;;;;;9.65;88.80;100475.97;5046378;28;20059;-76
2022/11/08 06:57:27;;;;;;;6.68;2.50;;;;;;;9.63;88.83;100467.47;5045847;28;20571;-77
2022/11/08 06:59:53;;;;;;;6.90;2.40;;;;;;;9.66;89.13;100487.94;5039488;28;20051;-77
2022/11/08 07:02:18;;;;;;;6.07;2.47;;;;;;;9.68;88.57;100480.88;5075028;22;20390;-77
2022/11/08 07:04:43;;;;;;;5.85;2.22;;;;;;;9.65;88.38;100487.13;5064942;28;20029;-77
2022/11/08 07:07:08;;;;;;;4.60;2.20;;;;;;;9.70;88.35;100481.59;5066869;28;20024;-78
2022/11/08 07:09:34;;;;;;;5.68;1.83;;;;;;;9.72;87.81;100477.91;5072669;28;20158;-78
2022/11/08 07:11:59;;;;;;;4.38;2.00;;;;;;;9.75;88.24;100482.84;5063078;28;20111;-76
2022/11/08 07:14:24;;;;;;;4.15;1.90;;;;;;;9.82;87.71;100496.09;5065846;28;20518;-78
2022/11/08 07:16:50;;;;;;;4.78;2.00;;;;;;;9.83;87.51;100489.97;5065968;28;20028;-77
2022/11/08 07:19:15;;;;;;;6.38;2.03;;;;;;;9.86;87.63;100479.31;5064396;28;20039;-77
2022/11/08 07:21:41;;;;;;;4.05;1.95;;;;;;;9.91;87.50;100490.13;5064854;28;20033;-78
2022/11/08 07:24:06;;;;;;;4.78;2.03;;;;;;;9.94;87.44;100487.28;5066379;28;20530;-77
2022/11/08 07:26:31;;;;;;;4.72;2.30;;;;;;;9.92;87.02;100481.44;5062306;28;20460;-77
2022/11/08 07:28:57;;;;;;;6.30;2.10;;;;;;;9.96;86.25;100480.19;5068411;28;20103;-76
2022/11/08 07:31:22;;;;;;;5.63;2.05;;;;;;;9.98;86.53;100478.31;5069157;28;20298;-77
2022/11/08 07:33:48;;;;;;;4.95;2.10;;;;;;;10.03;86.55;100491.69;5060827;28;20068;-77
2022/11/08 07:36:14;;;;;;;6.45;2.08;;;;;;;10.04;86.48;100485.56;5071386;28;20366;-78
2022/11/08 07:38:39;;;;;;;5.53;1.98;;;;;;;10.06;86.13;100488.84;5058381;28;20127;-79
2022/11/08 07:41:05;;;;;;;4.30;2.00;;;;;;;10.10;85.81;100492.81;5069412;28;20086;-79
2022/11/08 07:43:30;;;;;;;4.18;1.60;;;;;;;10.03;85.83;100463.16;5061736;28;20496;-80
2022/11/08 07:45:58;;;;;;;4.55;2.05;;;;;;;10.15;85.95;100484.66;5066962;28;20428;-83
2022/11/08 07:48:24;;;;;;;5.60;1.77;;;;;;;10.18;85.22;100483.56;5062103;28;20028;-77
2022/11/08 07:50:50;;;;;;;5.30;1.90;;;;;;;10.19;85.43;100474.84;5064804;28;20350;-76
2022/11/08 07:53:15;;;;;;;4.03;1.90;;;;;;;10.19;85.07;100464.47;5066104;28;20460;-77
2022/11/08 07:55:41;;;;;;;7.18;2.03;;;;;;;10.21;85.40;100452.22;5070873;28;20469;-77
2022/11/08 07:58:08;;;;;;;4.05;1.90;;;;;;;10.23;85.29;100450.31;5062646;28;20061;-77
2022/11/08 08:00:36;;;;;;;8.50;2.35;;;;;;;10.18;85.37;100436.91;5066778;28;20045;-79
2022/11/08 08:03:04;;;;;;;4.15;1.80;;;;;;;10.24;85.68;100468.34;5064840;28;20040;-77
2022/11/08 08:05:33;;;;;;;8.03;2.13;;;;;;;10.21;85.60;100467.78;5056451;28;20029;-76
2022/11/08 08:07:59;;;;;;;5.20;2.00;;;;;;;10.25;85.04;100469.16;5060386;28;20028;-76
2022/11/08 08:10:26;;;;;;;4.30;2.03;;;;;;;10.26;84.99;100465.59;5066283;28;20638;-77
2022/11/08 08:12:51;;;;;;;5.05;2.53;;;;;;;10.25;85.24;100459.59;5060355;28;20092;-76
2022/11/08 08:15:17;;;;;;;7.65;3.20;;;;;;;10.27;85.02;100464.69;5058049;28;20422;-76
2022/11/08 08:17:45;;;;;;;5.43;1.83;;;;;;;10.34;84.09;100465.78;5060453;28;20040;-81
2022/11/08 08:20:11;;;;;;;6.90;2.08;;;;;;;10.32;84.25;100454.72;5049800;28;20028;-78
2022/11/08 08:22:51;;;;;;;4.57;1.90;;;;;;;10.39;84.23;100466.22;5074177;28;20040;-79
2022/11/08 08:25:17;;;;;;;3.60;1.98;;;;;;;10.41;83.46;100464.28;5067237;28;20283;-86
2022/11/08 08:27:50;;;;;;;3.30;1.65;;;;;;;10.46;83.44;100471.69;5061367;28;20017;-79
2022/11/08 08:30:16;;;;;;;6.13;2.38;;;;;;;10.45;83.22;100473.47;5059235;28;20047;-79
2022/11/08 08:32:43;;;;;;;4.40;1.88;;;;;;;10.48;83.73;100475.75;5067711;28;20099;-83
2022/11/08 08:35:08;;;;;;;5.50;1.80;;;;;;;10.47;83.32;100479.31;5061270;28;20044;-85
2022/11/08 08:37:34;;;;;;;6.32;1.85;;;;;;;10.54;83.20;100490.78;5062015;28;20112;-76
2022/11/08 08:39:59;;;;;;;10.02;2.17;;;;;;;10.57;83.00;100495.72;5064424;28;20037;-80
2022/11/08 08:42:25;;;;;;;5.30;1.70;;;;;;;10.56;82.71;100488.09;5064342;28;20074;-79
2022/11/08 08:44:50;;;;;;;5.18;1.80;;;;;;;10.59;82.11;100483.44;5071605;28;20050;-79
2022/11/08 08:47:18;;;;;;;6.05;1.80;;;;;;;10.63;82.01;100504.75;5063647;28;20368;-80
2022/11/08 08:49:43;;;;;;;6.65;2.00;;;;;;;10.67;82.54;100510.47;5062887;28;20528;-79
2022/11/08 08:52:08;;;;;;;6.32;1.75;;;;;;;10.68;81.48;100504.34;5062809;28;20111;-79
2022/11/08 08:54:34;;;;;;;4.85;1.83;;;;;;;10.73;82.20;100489.22;5065451;28;20777;-81
2022/11/08 08:56:59;;;;;;;6.03;1.90;;;;;;;10.75;81.80;100497.66;5064455;28;20083;-79
2022/11/08 08:59:27;;;;;;;5.57;1.75;;;;;;;10.76;81.67;100499.31;5063133;28;20202;-80
2022/11/08 09:01:52;;;;;;;5.07;1.60;;;;;;;10.76;81.52;100478.56;5061892;28;20048;-85
2022/11/08 09:04:17;;;;;;;4.80;1.85;;;;;;;10.78;81.88;100476.63;5062704;28;20382;-80
2022/11/08 09:06:43;;;;;;;6.30;2.17;;;;;;;10.82;81.56;100478.00;5061580;28;20033;-78
2022/11/08 09:09:08;;;;;;;4.30;2.13;;;;;;;10.84;82.04;100470.94;5060157;28;20383;-82
2022/11/08 09:11:33;;;;;;;3.85;1.92;;;;;;;10.85;81.57;100473.38;5061487;28;20162;-77
2022/11/08 09:13:59;;;;;;;4.85;1.70;;;;;;;10.86;81.13;100466.41;5070888;28;20093;-83
2022/11/08 09:16:24;;;;;;;5.60;1.75;;;;;;;10.88;81.26;100456.72;5065479;28;20060;-81
2022/11/08 09:18:49;;;;;;;4.32;1.88;;;;;;;10.90;80.56;100466.00;5068203;28;20122;-81
2022/11/08 09:21:15;;;;;;;5.13;1.52;;;;;;;10.94;81.25;100461.34;5070566;28;20024;-80
2022/11/08 09:23:41;;;;;;;4.43;1.77;;;;;;;10.96;81.54;100464.66;5063847;28;20036;-85
2022/11/08 09:26:06;;;;;;;4.20;1.90;;;;;;;11.02;81.40;100465.88;5063465;28;20525;-83
2022/11/08 09:28:33;;;;;;;5.38;1.85;;;;;;;11.08;81.39;100471.34;5062864;28;20025;-82
2022/11/08 09:31:05;;;;;;;4.78;1.58;;;;;;;11.10;80.98;100456.44;5060297;28;20017;-84
2022/11/08 09:33:31;;;;;;;5.07;1.70;;;;;;;11.13;81.38;100451.00;5058894;28;20029;-78
2022/11/08 09:35:58;;;;;;;2.95;1.50;;;;;;;11.21;80.78;100457.25;5067238;28;20025;-78
2022/11/08 09:38:23;;;;;;;3.72;1.75;;;;;;;11.26;80.61;100460.25;5064563;28;20028;-78
2022/11/08 09:41:09;;;;;;;5.78;1.75;;;;;;;11.29;81.39;100465.97;5079574;28;20035;-79
2022/11/08 09:43:57;;;;;;;4.43;1.50;;;;;;;11.34;80.82;100462.97;5056291;28;20135;-79
2022/11/08 09:46:44;;;;;;;4.85;1.50;;;;;;;11.38;80.52;100469.53;5058037;28;20036;-80
2022/11/08 09:49:19;;;;;;;3.78;1.75;;;;;;;11.37;80.04;100462.72;5062836;28;20099;-79
2022/11/08 09:51:44;;;;;;;4.55;2.00;;;;;;;11.45;80.30;100468.00;5050618;28;20040;-78
2022/11/08 09:54:25;;;;;;;3.55;1.50;;;;;;;11.48;80.33;100472.94;5055397;28;20033;-78
2022/11/08 09:56:52;;;;;;;6.35;1.75;;;;;;;11.50;80.24;100476.22;5061704;28;20407;-78
2022/11/08 09:59:51;;;;;;;5.75;1.90;;;;;;;11.59;80.84;100477.16;5060152;28;20028;-79
2022/11/08 10:02:22;;;;;;;5.10;1.83;;;;;;;11.61;80.07;100480.44;5055549;28;20044;-78
2022/11/08 10:04:57;;;;;;;4.80;1.90;;;;;;;11.65;79.78;100464.44;5077515;28;20085;-78
2022/11/08 10:07:33;;;;;;;4.40;1.83;;;;;;;11.70;79.17;100483.00;5063418;28;20032;-78
2022/11/08 10:10:22;;;;;;;4.47;1.73;;;;;;;11.74;78.87;100474.91;5062879;28;20028;-82
2022/11/08 10:13:03;;;;;;;4.18;1.90;;;;;;;11.81;78.93;100483.78;5065959;28;20594;-79
2022/11/08 10:15:53;;;;;;;5.70;2.85;;;;;;;11.85;78.82;100483.41;5066469;28;20029;-79
2022/11/08 10:18:39;;;;;;;4.03;1.65;;;;;;;11.88;78.55;100477.13;5065171;28;20047;-81
2022/11/08 10:21:07;;;;;;;4.90;1.63;;;;;;;11.95;78.13;100478.16;5063647;28;20377;-79
2022/11/08 10:23:43;;;;;;;6.05;1.83;;;;;;;12.00;78.08;100490.75;5068920;28;20036;-79
2022/11/08 10:26:19;;;;;;;3.47;1.83;;;;;;;11.99;77.50;100489.94;5066984;28;20061;-80
2022/11/08 10:28:53;;;;;;;4.70;2.13;;;;;;;12.06;77.30;100501.38;5068282;28;20043;-79
2022/11/08 10:31:19;;;;;;;4.80;1.70;;;;;;;12.10;77.58;100500.16;5069269;28;20020;-78
2022/11/08 10:33:51;;;;;;;6.43;1.90;;;;;;;12.09;76.35;100475.09;5066225;28;20489;-79
2022/11/08 10:36:29;;;;;;;6.95;2.15;;;;;;;12.17;75.74;100488.22;5070865;28;20083;-79
2022/11/08 10:39:03;;;;;;;5.53;2.00;;;;;;;12.22;76.86;100486.00;5063314;28;20021;-84
2022/11/08 10:41:46;;;;;;;3.50;2.08;;;;;;;12.25;76.25;100478.88;5078700;28;20056;-81
2022/11/08 10:44:19;;;;;;;4.05;1.90;;;;;;;12.26;76.17;100480.50;5079330;28;20059;-79
2022/11/08 10:46:52;;;;;;;6.20;1.98;;;;;;;12.29;75.98;100480.22;5071125;28;20104;-78
2022/11/08 10:49:19;;;;;;;4.70;1.70;;;;;;;12.29;76.41;100475.84;5073161;28;20024;-79
2022/11/08 10:51:48;;;;;;;4.53;1.83;;;;;;;12.28;76.03;100476.00;5069696;28;20040;-79
2022/11/08 10:54:40;;;;;;;4.38;1.92;;;;;;;12.34;76.89;100484.03;5061712;28;20024;-78
2022/11/08 10:57:07;;;;;;;4.20;1.77;;;;;;;12.32;76.02;100479.91;5072995;28;20040;-80
2022/11/08 10:59:32;;;;;;;3.78;1.73;;;;;;;12.32;76.20;100472.94;5083501;28;20386;-78
2022/11/08 11:01:58;;;;;;;5.20;2.15;;;;;;;12.42;76.00;100480.69;5075863;28;20059;-77
2022/11/08 11:04:27;;;;;;;4.00;1.88;;;;;;;12.40;76.10;100483.44;5075077;28;20753;-80
2022/11/08 11:06:52;;;;;;;4.88;1.95;;;;;;;12.44;75.67;100473.56;5066581;28;20021;-79
2022/11/08 11:09:20;;;;;;;5.80;1.83;;;;;;;12.50;75.76;100488.56;5074742;28;20027;-78
2022/11/08 11:11:56;;;;;;;6.50;1.88;;;;;;;12.51;75.57;100473.81;5080083;28;20052;-77
2022/11/08 11:14:22;;;;;;;4.22;1.85;;;;;;;12.56;74.67;100481.97;5071465;28;20009;-79
2022/11/08 11:16:56;;;;;;;3.70;1.80;;;;;;;12.58;74.94;100470.47;5073711;28;20055;-79
2022/11/08 11:19:24;;;;;;;6.20;1.70;;;;;;;12.60;74.68;100478.94;5076841;28;20028;-79
2022/11/08 11:22:02;;;;;;;4.30;1.97;;;;;;;12.63;74.62;100465.66;5075889;28;20066;-83
2022/11/08 11:24:28;;;;;;;3.75;1.80;;;;;;;12.60;74.41;100467.72;5078485;28;20027;-82
2022/11/08 11:26:56;;;;;;;4.32;1.75;;;;;;;12.65;74.31;100461.09;5077511;28;20384;-79
2022/11/08 11:29:30;;;;;;;5.03;1.52;;;;;;;12.67;74.45;100453.13;5062896;28;20028;-80
2022/11/08 11:31:56;;;;;;;6.38;1.52;;;;;;;12.71;74.48;100455.31;5061170;28;20031;-80
2022/11/08 11:34:48;;;;;;;6.85;1.73;;;;;;;12.74;75.05;100446.41;5062092;28;20464;-79
2022/11/08 11:37:23;;;;;;;3.15;1.50;;;;;;;12.73;74.09;100435.19;5058306;28;20021;-81
2022/11/08 11:40:13;;;;;;;4.32;1.80;;;;;;;12.75;74.92;100433.22;5072735;28;20028;-80
2022/11/08 11:42:57;;;;;;;3.58;1.58;;;;;;;12.78;74.56;100445.13;5060288;28;20063;-80
2022/11/08 11:45:28;;;;;;;5.95;2.42;;;;;;;12.78;74.09;100434.72;5057051;28;20401;-80
2022/11/08 11:48:01;;;;;;;4.90;1.73;;;;;;;12.81;73.82;100428.41;5060670;28;20048;-82
2022/11/08 11:50:43;;;;;;;5.03;1.70;;;;;;;12.90;74.51;100437.91;5063493;28;20032;-81
2022/11/08 11:53:40;;;;;;;6.07;2.00;;;;;;;12.96;74.26;100427.72;5059718;28;20386;-80